createdAt,value
2024-02-08T05:40:15.689Z,100.00
2024-02-08T05:43:28.989Z,100.00
2024-02-08T05:46:31.651Z,100.00
2024-02-08T05:49:34.326Z,100.00
2024-02-08T05:52:40.114Z,100.00
2024-02-08T05:55:49.237Z,100.00
2024-02-08T05:58:54.535Z,100.00
2024-02-08T06:02:00.703Z,100.00
2024-02-08T06:05:10.961Z,100.00
2024-02-08T06:08:26.698Z,100.00
2024-02-08T06:11:29.370Z,100.00
2024-02-08T06:14:32.215Z,100.00
2024-02-08T06:17:35.110Z,100.00
2024-02-08T06:20:42.755Z,100.00
2024-02-08T06:23:46.863Z,100.00
2024-02-08T06:26:57.452Z,100.00
2024-02-08T06:30:06.751Z,100.00
2024-02-08T06:33:11.876Z,100.00
2024-02-08T06:36:23.862Z,100.00
2024-02-08T06:39:31.087Z,100.00
2024-02-08T06:42:39.935Z,100.00
2024-02-08T06:45:48.166Z,100.00
2024-02-08T06:49:10.743Z,100.00
2024-02-08T06:52:32.216Z,100.00
2024-02-08T06:55:53.263Z,100.00
2024-02-08T06:59:15.774Z,100.00
2024-02-08T07:02:37.163Z,100.00
2024-02-08T07:05:58.478Z,100.00
2024-02-08T07:09:19.471Z,100.00
2024-02-08T07:12:41.237Z,100.00
2024-02-08T07:16:02.559Z,100.00
2024-02-08T07:19:23.838Z,100.00
2024-02-08T07:22:45.070Z,100.00
2024-02-08T07:26:06.049Z,100.00
2024-02-08T07:29:27.922Z,100.00
2024-02-08T07:32:48.940Z,100.00
2024-02-08T07:36:10.273Z,100.00
2024-02-08T07:39:31.291Z,100.00
2024-02-08T07:42:36.517Z,100.00
2024-02-08T07:45:39.108Z,100.00
2024-02-08T07:48:45.289Z,100.00
2024-02-08T07:51:52.026Z,100.00
2024-02-08T07:55:13.510Z,100.00
2024-02-08T07:58:20.154Z,100.00
2024-02-08T08:01:22.783Z,100.00
2024-02-08T08:04:53.141Z,100.00
2024-02-08T08:08:01.252Z,100.00
2024-02-08T08:11:08.304Z,100.00
2024-02-08T08:14:11.079Z,100.00
2024-02-08T08:17:16.516Z,100.00
2024-02-08T08:20:39.561Z,100.00
2024-02-08T08:24:01.474Z,100.00
2024-02-08T08:27:08.244Z,100.00
2024-02-08T08:30:12.884Z,100.00
2024-02-08T08:33:35.530Z,100.00
2024-02-08T08:36:43.277Z,100.00
2024-02-08T08:40:09.094Z,100.00
2024-02-08T08:43:12.002Z,100.00
2024-02-08T08:46:14.631Z,100.00
2024-02-08T08:49:22.517Z,100.00
2024-02-08T08:52:25.634Z,100.00
2024-02-08T08:55:28.401Z,100.00
2024-02-08T08:58:40.456Z,99.68
2024-02-08T09:01:44.227Z,98.59
2024-02-08T09:04:49.354Z,98.09
2024-02-08T09:07:56.297Z,97.20
2024-02-08T09:11:00.288Z,97.27
2024-02-08T09:14:11.880Z,96.28
2024-02-08T09:17:24.640Z,96.64
2024-02-08T09:20:30.505Z,95.43
2024-02-08T09:23:38.202Z,94.55
2024-02-08T09:26:50.214Z,93.43
2024-02-08T09:30:00.576Z,91.24
2024-02-08T09:33:05.102Z,90.08
2024-02-08T09:36:08.085Z,89.09
2024-02-08T09:39:16.450Z,88.66
2024-02-08T09:42:19.689Z,89.06
2024-02-08T09:45:35.516Z,88.43
2024-02-08T09:48:44.692Z,87.54
2024-02-08T09:51:55.465Z,87.10
2024-02-08T09:55:09.801Z,87.32
2024-02-08T09:58:14.341Z,86.66
2024-02-08T10:01:32.401Z,85.78
2024-02-08T10:04:35.104Z,84.69
2024-02-08T10:07:37.828Z,80.20
2024-02-08T10:11:00.331Z,80.75
2024-02-08T10:14:07.720Z,81.41
2024-02-08T10:17:17.082Z,81.22
2024-02-08T10:20:22.612Z,81.24
2024-02-08T10:26:47.554Z,80.40
2024-02-08T10:30:06.593Z,79.19
2024-02-08T10:33:11.987Z,79.54
2024-02-08T10:36:21.576Z,78.72
2024-02-08T10:39:26.310Z,78.51
2024-02-08T10:42:39.825Z,77.25
2024-02-08T10:45:45.742Z,77.72
2024-02-08T10:48:51.062Z,75.90
2024-02-08T10:52:02.305Z,75.54
2024-02-08T10:55:20.093Z,75.78
2024-02-08T10:58:28.334Z,75.21
2024-02-08T11:01:34.731Z,75.36
2024-02-08T11:04:43.479Z,74.71
2024-02-08T11:07:47.581Z,75.41
2024-02-08T11:10:51.248Z,75.22
2024-02-08T11:14:01.238Z,74.39
2024-02-08T11:17:06.437Z,74.77
2024-02-08T11:20:18.553Z,74.36
2024-02-08T11:23:25.193Z,74.45
2024-02-08T11:26:28.307Z,74.54
2024-02-08T11:29:31.128Z,73.48
2024-02-08T11:32:35.830Z,73.75
2024-02-08T11:35:47.550Z,71.56
2024-02-08T11:39:00.218Z,70.92
2024-02-08T11:42:18.304Z,71.79
2024-02-08T11:45:23.957Z,72.10
2024-02-08T11:48:30.545Z,72.02
2024-02-08T11:51:35.306Z,71.73
2024-02-08T11:54:41.187Z,72.38
2024-02-08T11:57:44.321Z,71.91
2024-02-08T12:00:50.719Z,71.76
2024-02-08T12:03:54.858Z,72.15
2024-02-08T12:07:04.358Z,72.40
2024-02-08T12:10:11.037Z,72.88
2024-02-08T12:13:16.019Z,72.72
2024-02-08T12:16:19.160Z,71.58
2024-02-08T12:19:22.615Z,72.27
2024-02-08T12:22:28.120Z,72.64
2024-02-08T12:25:32.234Z,72.15
2024-02-08T12:28:39.645Z,70.45
2024-02-08T12:31:45.153Z,71.75
2024-02-08T12:34:50.233Z,71.04
2024-02-08T12:37:59.910Z,70.76
2024-02-08T12:41:07.849Z,71.00
2024-02-08T12:44:11.918Z,70.61
2024-02-08T12:47:18.824Z,70.66
2024-02-08T12:50:27.002Z,70.34
2024-02-08T12:53:35.971Z,69.49
2024-02-08T12:56:38.814Z,68.99
2024-02-08T12:59:43.393Z,68.77
2024-02-08T13:02:47.491Z,68.85
2024-02-08T13:05:51.644Z,68.18
2024-02-08T13:09:18.347Z,68.96
2024-02-08T13:12:24.189Z,67.33
2024-02-08T13:15:33.009Z,67.72
2024-02-08T13:18:40.612Z,67.87
2024-02-08T13:21:46.144Z,67.53
2024-02-08T13:24:53.202Z,67.77
2024-02-08T13:27:59.464Z,68.04
2024-02-08T13:31:10.009Z,67.99
2024-02-08T13:34:15.044Z,67.17
2024-02-08T13:37:23.755Z,67.73
2024-02-08T13:40:27.065Z,67.48
2024-02-08T13:43:32.308Z,67.13
2024-02-08T13:46:37.889Z,68.38
2024-02-08T13:49:41.050Z,68.86
2024-02-08T13:52:43.743Z,69.59
2024-02-08T13:55:53.953Z,68.92
2024-02-08T13:59:01.772Z,68.30
2024-02-08T14:27:21.377Z,70.68
2024-02-08T14:30:23.771Z,71.63
2024-02-08T14:33:26.258Z,70.73
2024-02-08T14:36:29.496Z,71.41
2024-02-08T14:39:36.104Z,70.33
2024-02-08T14:42:40.686Z,70.70
2024-02-08T14:45:45.119Z,71.20
2024-02-08T14:48:52.907Z,71.24
2024-02-08T14:52:04.343Z,70.87
2024-02-08T14:55:11.757Z,69.84
2024-02-08T14:58:50.220Z,71.08
2024-02-08T15:02:01.260Z,69.97
2024-02-08T15:05:03.947Z,69.80
2024-02-08T15:08:37.597Z,68.24
2024-02-08T15:11:51.371Z,68.74
2024-02-08T15:14:56.551Z,69.23
2024-02-08T15:18:17.264Z,69.47
2024-02-08T15:21:25.766Z,69.42
2024-02-08T15:24:29.265Z,70.03
2024-02-08T15:27:51.538Z,70.69
2024-02-08T15:31:13.133Z,70.83
2024-02-08T15:34:18.868Z,71.38
2024-02-08T15:37:30.103Z,72.01
2024-02-08T15:40:32.910Z,72.67
2024-02-08T15:43:37.859Z,72.89
2024-02-08T15:46:42.832Z,73.81
2024-02-08T15:49:46.102Z,74.58
2024-02-08T15:52:54.623Z,75.45
2024-02-08T15:56:00.128Z,76.15
2024-02-08T15:59:07.096Z,76.31
2024-02-08T16:02:17.924Z,76.27
2024-02-08T16:05:24.305Z,77.27
2024-02-08T16:08:37.154Z,78.10
2024-02-08T16:11:44.279Z,78.41
2024-02-08T16:15:06.860Z,77.88
2024-02-08T16:18:24.096Z,77.85
2024-02-08T16:21:31.413Z,78.80
2024-02-08T16:24:34.030Z,79.67
2024-02-08T16:27:49.473Z,79.81
